createdAt,value
2023-05-05T00:01:22.102Z,101817.63
2023-05-05T00:03:49.159Z,101743.19
2023-05-05T00:06:15.962Z,101907.50
2023-05-05T00:08:42.805Z,101780.72
2023-05-05T00:11:09.464Z,101889.69
2023-05-05T00:13:36.141Z,101926.72
2023-05-05T00:16:02.835Z,101932.41
2023-05-05T00:18:29.649Z,101865.16
2023-05-05T00:20:56.304Z,101940.03
2023-05-05T00:23:22.961Z,101930.44
2023-05-05T00:25:49.623Z,101750.34
2023-05-05T00:28:16.297Z,101929.03
2023-05-05T00:30:43.196Z,101930.03
2023-05-05T00:33:10.061Z,101820.88
2023-05-05T00:35:36.777Z,101711.06
2023-05-05T00:38:05.123Z,101808.59
2023-05-05T00:40:31.803Z,101888.78
2023-05-05T00:42:59.629Z,101924.59
2023-05-05T00:45:26.356Z,101930.38
2023-05-05T00:47:54.719Z,101930.13
2023-05-05T00:50:24.346Z,101933.84
2023-05-05T00:52:54.148Z,101940.19
2023-05-05T00:55:21.704Z,101920.94
2023-05-05T00:57:49.390Z,101930.44
2023-05-05T01:00:17.931Z,101752.88
2023-05-05T01:02:45.042Z,101895.72
2023-05-05T01:05:14.166Z,101761.28
2023-05-05T01:07:40.802Z,101929.69
2023-05-05T01:10:22.951Z,101852.03
2023-05-05T01:13:05.143Z,101923.34
2023-05-05T01:15:37.733Z,101925.16
2023-05-05T01:18:19.266Z,101933.44
2023-05-05T01:20:59.444Z,101926.53
2023-05-05T01:23:51.234Z,101920.75
2023-05-05T01:26:49.150Z,101920.41
2023-05-05T01:29:49.571Z,101920.00
2023-05-05T01:32:26.990Z,101878.22
2023-05-05T01:35:00.659Z,101924.38
2023-05-05T01:37:50.399Z,101920.03
2023-05-05T01:40:26.016Z,101924.53
2023-05-05T01:42:55.261Z,101955.28
2023-05-05T01:45:26.447Z,101923.50
2023-05-05T01:47:55.841Z,101886.47
2023-05-05T01:50:24.760Z,101912.72
2023-05-05T01:52:52.640Z,101758.59
2023-05-05T01:55:21.639Z,101901.53
2023-05-05T01:57:49.887Z,101945.84
2023-05-05T02:00:19.377Z,101888.09
2023-05-05T02:02:48.258Z,101896.06
2023-05-05T02:05:16.918Z,101864.97
2023-05-05T02:07:45.339Z,101966.53
2023-05-05T02:10:14.174Z,101930.72
2023-05-05T02:12:42.933Z,101822.38
2023-05-05T02:15:10.970Z,101924.41
2023-05-05T02:17:42.982Z,101930.28
2023-05-05T02:20:12.576Z,101827.94
2023-05-05T02:22:40.092Z,101839.44
2023-05-05T02:25:07.922Z,101928.22
2023-05-05T02:27:37.240Z,101926.31
2023-05-05T02:30:09.393Z,101509.41
2023-05-05T02:33:00.059Z,101894.75
2023-05-05T02:35:35.665Z,101713.75
2023-05-05T02:38:05.619Z,101856.53
2023-05-05T02:40:40.701Z,101724.31
2023-05-05T02:43:11.266Z,101923.97
2023-05-05T02:45:38.607Z,101872.16
2023-05-05T02:48:05.974Z,101741.66
2023-05-05T02:50:37.505Z,101868.59
2023-05-05T02:53:26.187Z,101817.41
2023-05-05T02:55:57.183Z,101795.84
2023-05-05T02:58:41.565Z,101796.44
2023-05-05T03:01:31.557Z,101918.88
2023-05-05T03:04:07.704Z,101897.66
2023-05-05T03:06:43.438Z,101922.13
2023-05-05T03:09:28.041Z,101774.53
2023-05-05T03:12:13.785Z,101869.81
2023-05-05T03:14:55.614Z,101430.22
2023-05-05T03:17:24.933Z,101890.53
2023-05-05T03:19:52.455Z,101869.44
2023-05-05T03:22:20.007Z,101929.22
2023-05-05T03:24:51.544Z,101843.25
2023-05-05T03:27:22.408Z,101801.13
2023-05-05T03:29:49.124Z,101918.22
2023-05-05T03:32:16.426Z,101815.84
2023-05-05T03:34:44.060Z,101833.28
2023-05-05T03:37:11.003Z,101724.22
2023-05-05T03:39:39.477Z,101768.78
2023-05-05T03:42:07.450Z,101913.09
2023-05-05T03:44:37.379Z,101707.09
2023-05-05T03:47:04.245Z,101903.72
2023-05-05T03:49:33.392Z,101936.81
2023-05-05T03:52:00.695Z,101894.75
2023-05-05T03:54:27.726Z,101841.69
2023-05-05T03:56:54.838Z,101806.59
2023-05-05T03:59:21.569Z,101803.09
2023-05-05T04:01:49.890Z,101949.31
2023-05-05T04:04:17.154Z,101951.56
2023-05-05T04:06:43.942Z,101817.34
2023-05-05T04:09:12.150Z,101908.72
2023-05-05T04:11:38.932Z,101933.34
2023-05-05T04:14:05.623Z,101911.00
2023-05-05T04:16:32.653Z,101702.50
2023-05-05T04:18:59.505Z,101959.13
2023-05-05T04:21:27.000Z,101813.13
2023-05-05T04:23:53.691Z,101868.94
2023-05-05T04:26:21.898Z,101809.81
2023-05-05T04:28:49.089Z,102004.03
2023-05-05T04:31:17.300Z,101775.16
2023-05-05T04:33:44.784Z,101965.78
2023-05-05T04:36:12.392Z,101877.53
2023-05-05T04:38:39.142Z,101990.44
2023-05-05T04:41:09.176Z,101966.69
2023-05-05T04:43:38.015Z,101969.75
2023-05-05T04:46:05.134Z,101785.88
2023-05-05T04:48:34.278Z,101911.75
2023-05-05T04:51:04.871Z,101971.94
2023-05-05T04:53:33.415Z,101976.50
2023-05-05T04:56:01.217Z,101969.34
2023-05-05T04:58:28.630Z,101959.94
2023-05-05T05:01:02.073Z,101847.78
2023-05-05T05:03:32.542Z,101902.44
2023-05-05T05:05:59.325Z,101800.88
2023-05-05T05:08:26.305Z,101926.72
2023-05-05T05:10:52.926Z,101972.88
2023-05-05T05:13:19.695Z,102001.78
2023-05-05T05:15:46.534Z,101928.78
2023-05-05T05:18:13.182Z,101869.03
2023-05-05T05:20:39.921Z,101982.75
2023-05-05T05:23:06.583Z,101922.06
2023-05-05T05:25:36.894Z,101936.97
2023-05-05T05:28:10.331Z,101685.19
2023-05-05T05:30:43.996Z,101745.25
2023-05-05T05:33:11.783Z,101986.50
2023-05-05T05:35:39.708Z,101986.91
2023-05-05T05:38:06.761Z,101803.72
2023-05-05T05:40:33.683Z,101988.97
2023-05-05T05:43:00.509Z,101983.78
2023-05-05T05:45:27.987Z,101989.56
2023-05-05T05:47:55.157Z,101996.75
2023-05-05T05:50:22.090Z,101956.09
2023-05-05T05:52:49.000Z,101880.41
2023-05-05T05:55:15.770Z,101986.16
2023-05-05T05:57:42.756Z,101881.81
2023-05-05T06:00:11.421Z,101987.25
2023-05-05T06:02:44.676Z,101953.66
2023-05-05T06:05:14.755Z,101962.72
2023-05-05T06:07:42.565Z,101994.97
2023-05-05T06:10:27.189Z,101994.06
2023-05-05T06:12:59.334Z,101987.66
2023-05-05T06:15:26.368Z,101991.50
2023-05-05T06:17:53.598Z,101986.13
2023-05-05T06:20:21.913Z,101888.84
2023-05-05T06:22:48.631Z,101843.25
2023-05-05T06:25:15.602Z,101981.09
2023-05-05T06:27:42.266Z,101974.75
2023-05-05T06:30:09.854Z,101961.34
2023-05-05T06:32:36.717Z,101953.69
2023-05-05T06:35:03.598Z,101983.13
2023-05-05T06:37:35.929Z,101957.59
2023-05-05T06:40:14.944Z,101978.28
2023-05-05T06:42:41.733Z,101983.34
2023-05-05T06:45:11.319Z,102107.00
2023-05-05T06:47:38.142Z,101943.28
2023-05-05T06:50:06.225Z,102073.47
2023-05-05T06:52:33.156Z,101984.19
2023-05-05T06:54:59.871Z,101979.97
2023-05-05T06:57:26.731Z,101963.75
2023-05-05T06:59:53.980Z,101929.91
2023-05-05T07:02:20.848Z,101985.47
2023-05-05T07:04:47.514Z,101988.69
2023-05-05T07:07:14.205Z,101980.56
2023-05-05T07:09:41.316Z,101984.84
2023-05-05T07:12:08.141Z,101900.16
2023-05-05T07:14:34.731Z,101946.84
2023-05-05T07:17:01.637Z,101900.38
2023-05-05T07:19:28.314Z,101975.47
2023-05-05T07:21:55.110Z,101972.38
2023-05-05T07:24:24.377Z,101977.22
2023-05-05T07:26:51.113Z,101974.38
2023-05-05T07:29:17.832Z,101975.25
2023-05-05T07:31:44.664Z,101974.56
2023-05-05T07:34:11.337Z,101976.47
2023-05-05T07:36:37.976Z,101949.59
2023-05-05T07:39:05.160Z,101978.53
2023-05-05T07:41:31.810Z,101976.28
2023-05-05T07:43:58.493Z,101791.56
2023-05-05T07:46:25.209Z,101972.25
2023-05-05T07:48:51.860Z,101976.16
2023-05-05T07:51:18.674Z,101877.25
2023-05-05T07:53:45.481Z,101971.34
2023-05-05T07:56:12.247Z,101979.91
2023-05-05T07:58:39.014Z,101962.09
2023-05-05T08:01:06.966Z,101899.94
2023-05-05T08:03:33.847Z,101872.09
2023-05-05T08:06:09.268Z,101977.19
2023-05-05T08:08:36.325Z,101956.97
2023-05-05T08:11:03.576Z,101975.34
2023-05-05T08:13:30.468Z,101942.66
2023-05-05T08:15:57.202Z,101890.75
2023-05-05T08:18:24.668Z,101969.94
2023-05-05T08:20:51.995Z,101977.22
2023-05-05T08:23:18.824Z,101970.25
2023-05-05T08:25:45.505Z,101970.16
2023-05-05T08:28:12.086Z,101575.81
2023-05-05T08:30:39.163Z,101965.03
2023-05-05T08:33:06.116Z,101969.56
2023-05-05T08:35:32.738Z,101917.72
2023-05-05T08:37:59.502Z,101961.56
2023-05-05T08:40:33.109Z,101800.75
2023-05-05T08:43:00.040Z,101971.44
2023-05-05T08:45:28.906Z,101962.84
2023-05-05T08:48:01.933Z,101950.63
2023-05-05T08:50:29.763Z,101967.22
2023-05-05T08:53:12.634Z,101968.84
2023-05-05T08:56:05.667Z,101963.50
2023-05-05T08:58:33.444Z,101967.53
2023-05-05T09:01:01.608Z,101931.78
2023-05-05T09:03:29.768Z,101895.91
2023-05-05T09:05:56.966Z,101958.34
2023-05-05T09:08:24.678Z,101909.34
2023-05-05T09:10:51.857Z,101812.66
2023-05-05T09:13:18.684Z,101943.41
2023-05-05T09:15:45.476Z,101942.28
2023-05-05T09:18:13.084Z,101930.22
2023-05-05T09:20:40.911Z,101944.00
2023-05-05T09:23:18.767Z,101949.75
2023-05-05T09:25:48.023Z,101949.22
2023-05-05T09:28:16.861Z,101782.25
2023-05-05T09:30:47.452Z,101943.03
2023-05-05T09:33:14.376Z,101635.78
2023-05-05T09:35:55.530Z,101934.97
2023-05-05T09:38:32.481Z,101952.09
2023-05-05T09:40:59.145Z,101942.44
2023-05-05T09:43:25.743Z,101934.53
2023-05-05T09:46:06.239Z,101805.69
2023-05-05T09:48:33.093Z,101883.13
2023-05-05T09:51:00.390Z,101926.28
2023-05-05T09:53:38.575Z,101825.31
2023-05-05T09:56:05.818Z,101925.22
2023-05-05T09:58:32.628Z,101922.09
2023-05-05T10:00:59.505Z,101765.69
2023-05-05T10:03:26.274Z,101915.56
2023-05-05T10:06:01.090Z,101917.06
2023-05-05T10:08:30.579Z,101918.59
2023-05-05T10:11:04.095Z,101906.72
2023-05-05T10:13:35.501Z,101915.38
2023-05-05T10:16:03.927Z,101814.59
2023-05-05T10:18:32.529Z,101909.38
2023-05-05T10:21:02.162Z,101718.41
2023-05-05T10:23:34.882Z,101910.72
2023-05-05T10:26:05.515Z,101982.81
2023-05-05T10:28:34.248Z,101905.09
2023-05-05T10:31:07.586Z,101901.66
2023-05-05T10:34:03.639Z,101903.41
2023-05-05T10:36:31.825Z,101898.69
2023-05-05T10:39:00.574Z,101908.13
2023-05-05T10:41:28.667Z,101851.78
2023-05-05T10:43:59.648Z,101443.19
2023-05-05T10:46:28.778Z,101656.03
2023-05-05T10:49:28.854Z,101885.38
2023-05-05T10:52:20.101Z,101887.72
2023-05-05T10:55:02.468Z,101883.44
2023-05-05T10:57:32.187Z,101848.25
2023-05-05T10:59:58.856Z,101726.75
2023-05-05T11:02:29.662Z,101880.25
2023-05-05T11:05:06.166Z,101875.69
2023-05-05T11:07:34.480Z,101876.72
2023-05-05T11:10:03.460Z,101862.66
2023-05-05T11:12:31.845Z,101872.00
2023-05-05T11:15:26.677Z,101859.91
2023-05-05T11:17:55.129Z,101866.19
2023-05-05T11:20:37.558Z,101858.19
2023-05-05T11:23:04.411Z,101856.78
2023-05-05T11:25:34.516Z,101848.22
2023-05-05T11:28:17.501Z,101851.84
2023-05-05T11:30:57.829Z,101847.66
2023-05-05T11:33:29.658Z,101839.59
2023-05-05T11:35:57.792Z,101835.13
2023-05-05T11:38:36.547Z,101831.44
2023-05-05T11:41:12.458Z,101744.75
2023-05-05T11:43:40.069Z,101733.97
2023-05-05T11:46:17.031Z,101808.31
2023-05-05T11:48:45.123Z,101630.06
2023-05-05T11:51:16.290Z,101779.50
2023-05-05T11:53:47.697Z,101814.66
2023-05-05T11:56:24.869Z,101813.94
2023-05-05T11:59:12.427Z,101839.19
2023-05-05T12:01:42.338Z,101808.50
2023-05-05T12:04:13.018Z,101795.94
2023-05-05T12:06:40.359Z,101804.50
2023-05-05T12:09:14.328Z,101808.03
2023-05-05T12:11:51.809Z,101797.03
2023-05-05T12:14:18.617Z,101782.41
2023-05-05T12:17:14.484Z,101791.09
2023-05-05T12:19:54.982Z,101789.59
2023-05-05T12:22:23.892Z,101787.81
2023-05-05T12:24:57.713Z,101781.38
2023-05-05T12:27:26.837Z,101781.56
2023-05-05T12:29:55.238Z,101786.78
2023-05-05T12:32:27.767Z,101777.72
2023-05-05T12:34:57.572Z,101781.56
2023-05-05T12:37:26.060Z,101357.91
2023-05-05T12:39:55.107Z,101723.13
2023-05-05T12:42:22.479Z,101772.03
2023-05-05T12:44:49.557Z,101781.09
2023-05-05T12:47:31.255Z,101779.97
2023-05-05T12:50:00.305Z,101773.25
2023-05-05T12:52:44.035Z,101774.91
2023-05-05T12:55:11.465Z,101764.22
2023-05-05T12:57:39.126Z,101763.94
2023-05-05T13:00:18.031Z,101743.81
2023-05-05T13:02:44.792Z,101765.06
2023-05-05T13:05:11.973Z,101719.09
2023-05-05T13:07:50.774Z,101752.31
2023-05-05T13:10:18.512Z,101738.97
2023-05-05T13:12:45.382Z,101724.38
2023-05-05T13:15:12.475Z,101703.53
2023-05-05T13:17:39.256Z,101740.75
2023-05-05T13:20:08.041Z,101603.50
2023-05-05T13:22:34.651Z,101730.97
2023-05-05T13:25:01.457Z,101730.13
2023-05-05T13:27:28.197Z,101734.44
2023-05-05T13:29:54.985Z,101626.66
2023-05-05T13:32:21.546Z,101734.59
2023-05-05T13:34:48.180Z,101731.38
2023-05-05T13:37:14.956Z,101695.91
2023-05-05T13:39:41.588Z,101703.03
2023-05-05T13:42:08.359Z,101719.50
2023-05-05T13:44:35.640Z,101715.66
2023-05-05T13:47:02.298Z,101698.69
2023-05-05T13:49:28.927Z,101707.41
2023-05-05T13:51:56.340Z,101707.72
2023-05-05T13:54:23.061Z,101704.28
2023-05-05T13:56:49.675Z,101548.28
2023-05-05T13:59:16.309Z,101702.44
2023-05-05T14:01:42.982Z,101703.81
2023-05-05T14:04:09.645Z,101692.03
2023-05-05T14:06:36.429Z,101678.72
2023-05-05T14:09:05.808Z,101698.00
2023-05-05T14:11:32.868Z,101693.81
2023-05-05T14:13:59.567Z,101692.88
2023-05-05T14:16:26.344Z,101686.50
2023-05-05T14:18:53.138Z,101685.56
2023-05-05T14:21:19.768Z,101676.59
2023-05-05T14:23:46.490Z,101672.53
2023-05-05T14:26:13.224Z,101676.44
2023-05-05T14:28:39.849Z,101545.38
2023-05-05T14:31:06.520Z,101668.50
2023-05-05T14:33:33.219Z,101664.53
2023-05-05T14:35:59.985Z,101662.94
2023-05-05T14:38:26.683Z,101620.69
2023-05-05T14:40:53.407Z,101652.38
2023-05-05T14:43:20.760Z,101655.63
2023-05-05T14:45:47.485Z,101651.34
2023-05-05T14:48:14.120Z,101646.13
2023-05-05T14:50:42.435Z,101648.75
2023-05-05T14:53:09.205Z,101649.25
2023-05-05T14:55:35.808Z,101644.44
2023-05-05T14:58:02.447Z,101602.06
2023-05-05T15:00:29.144Z,101643.47
2023-05-05T15:02:56.203Z,101635.00
2023-05-05T15:05:22.979Z,101640.25
2023-05-05T15:07:49.678Z,101438.63
2023-05-05T15:10:16.497Z,101545.16
2023-05-05T15:12:43.492Z,101633.88
2023-05-05T15:15:10.748Z,101637.72
2023-05-05T15:17:38.801Z,101624.13
2023-05-05T15:20:06.847Z,101621.63
2023-05-05T15:22:33.908Z,101585.03
2023-05-05T15:25:01.257Z,101629.66
2023-05-05T15:27:28.381Z,101618.59
2023-05-05T15:29:55.327Z,101611.25
2023-05-05T15:32:22.210Z,101624.34
2023-05-05T15:34:50.371Z,101606.56
2023-05-05T15:37:17.443Z,101618.78
2023-05-05T15:39:44.263Z,101612.31
2023-05-05T15:42:11.057Z,101370.41
2023-05-05T15:44:38.262Z,101532.31
2023-05-05T15:47:06.461Z,101415.34
2023-05-05T15:49:33.303Z,101608.03
2023-05-05T15:52:00.796Z,101608.03
2023-05-05T15:54:27.597Z,101534.38
2023-05-05T15:56:54.989Z,101568.19
2023-05-05T15:59:22.473Z,101603.06
2023-05-05T16:01:49.189Z,101586.47
2023-05-05T16:04:15.786Z,101603.25
2023-05-05T16:06:42.517Z,101580.25
2023-05-05T16:09:09.310Z,101244.00
2023-05-05T16:11:37.504Z,101590.84
2023-05-05T16:14:04.449Z,101590.72
2023-05-05T16:16:31.255Z,101551.97
2023-05-05T16:18:57.931Z,101594.72
2023-05-05T16:21:24.721Z,101590.09
2023-05-05T16:23:51.449Z,101595.00
2023-05-05T16:26:19.331Z,101586.19
2023-05-05T16:28:46.103Z,101568.75
2023-05-05T16:31:14.565Z,101588.59
2023-05-05T16:33:43.498Z,101586.31
2023-05-05T16:36:14.103Z,101526.66
2023-05-05T16:38:41.107Z,101453.78
2023-05-05T16:41:08.264Z,101586.19
2023-05-05T16:43:37.243Z,101581.94
2023-05-05T16:46:04.300Z,101574.72
2023-05-05T16:48:31.116Z,101596.16
2023-05-05T16:50:58.120Z,101579.63
2023-05-05T16:53:26.340Z,101496.25
2023-05-05T16:55:53.550Z,101578.50
2023-05-05T16:58:21.276Z,101587.91
2023-05-05T17:00:49.200Z,101573.56
2023-05-05T17:03:17.038Z,101565.72
2023-05-05T17:05:44.703Z,101377.94
2023-05-05T17:08:14.073Z,101476.25
2023-05-05T17:10:42.205Z,101547.53
2023-05-05T17:13:09.614Z,101588.00
2023-05-05T17:15:37.514Z,101566.13
2023-05-05T17:18:05.437Z,101508.44
2023-05-05T17:20:32.904Z,101566.94
2023-05-05T17:22:59.683Z,101569.47
2023-05-05T17:25:26.308Z,101566.94
2023-05-05T17:27:52.993Z,101325.97
2023-05-05T17:30:19.840Z,101531.66
2023-05-05T17:32:47.377Z,101481.59
2023-05-05T17:35:14.655Z,101554.41
2023-05-05T17:37:41.369Z,101568.09
2023-05-05T17:40:08.448Z,101495.69
2023-05-05T17:42:35.130Z,101491.63
2023-05-05T17:45:05.200Z,101486.19
2023-05-05T17:47:31.988Z,101570.09
2023-05-05T17:49:58.959Z,101521.41
2023-05-05T17:52:26.030Z,101572.91
2023-05-05T17:54:52.689Z,101490.91
2023-05-05T17:57:21.193Z,101462.38
2023-05-05T17:59:53.704Z,101531.84
2023-05-05T18:02:21.305Z,101576.59
2023-05-05T18:04:48.017Z,101573.00
2023-05-05T18:07:15.050Z,101515.38
2023-05-05T18:09:42.227Z,101584.03
2023-05-05T18:12:09.078Z,101575.78
2023-05-05T18:14:35.814Z,101582.47
2023-05-05T18:17:02.989Z,101581.03
2023-05-05T18:19:29.658Z,101589.41
2023-05-05T18:21:57.426Z,101682.41
2023-05-05T18:24:24.403Z,101589.09
2023-05-05T18:26:52.480Z,101581.56
2023-05-05T18:29:21.671Z,101570.19
2023-05-05T18:31:51.439Z,101597.56
2023-05-05T18:34:19.129Z,101555.97
2023-05-05T18:36:46.389Z,101600.94
2023-05-05T18:39:13.998Z,101605.72
2023-05-05T18:41:41.115Z,101469.34
2023-05-05T18:44:07.985Z,101511.34
2023-05-05T18:46:34.792Z,101605.06
2023-05-05T18:49:01.675Z,101604.41
2023-05-05T18:51:28.675Z,101579.50
2023-05-05T18:53:55.554Z,101607.75
2023-05-05T18:56:22.222Z,101625.75
2023-05-05T18:58:49.078Z,101596.41
2023-05-05T19:01:16.362Z,101567.38
2023-05-05T19:03:47.745Z,101623.88
2023-05-05T19:06:15.203Z,101617.00
2023-05-05T19:08:42.550Z,101621.47
2023-05-05T19:11:09.245Z,101580.81
2023-05-05T19:13:36.001Z,101620.72
2023-05-05T19:16:02.736Z,101545.56
2023-05-05T19:18:29.485Z,101622.06
2023-05-05T19:20:56.218Z,101624.44
2023-05-05T19:23:22.933Z,101604.72
2023-05-05T19:25:53.351Z,101489.06
2023-05-05T19:28:20.084Z,101674.09
2023-05-05T19:30:48.561Z,101631.03
2023-05-05T19:33:16.230Z,101638.75
2023-05-05T19:35:43.367Z,101598.38
2023-05-05T19:38:10.381Z,101540.94
2023-05-05T19:40:41.129Z,101648.94
2023-05-05T19:43:08.187Z,101643.91
2023-05-05T19:45:35.076Z,101645.69
2023-05-05T19:48:02.194Z,101647.63
2023-05-05T19:50:30.611Z,101650.06
2023-05-05T19:52:58.134Z,101655.47
2023-05-05T19:55:24.906Z,101660.75
2023-05-05T19:57:51.620Z,101642.03
2023-05-05T20:00:18.680Z,101662.72
2023-05-05T20:02:45.711Z,101664.50
2023-05-05T20:05:17.221Z,101618.50
2023-05-05T20:07:46.757Z,101666.66
2023-05-05T20:10:13.823Z,101657.50
2023-05-05T20:12:49.052Z,101544.53
2023-05-05T20:15:20.549Z,101660.53
2023-05-05T20:17:48.354Z,101624.72
2023-05-05T20:20:18.633Z,101761.88
2023-05-05T20:22:46.455Z,101628.75
2023-05-05T20:25:15.205Z,101699.06
2023-05-05T20:27:42.544Z,101620.84
2023-05-05T20:30:10.537Z,101680.88
2023-05-05T20:32:37.830Z,101598.00
2023-05-05T20:35:06.062Z,101536.47
2023-05-05T20:37:32.772Z,101520.03
2023-05-05T20:39:59.626Z,101667.75
2023-05-05T20:42:27.836Z,101757.44
2023-05-05T20:44:55.497Z,101676.69
2023-05-05T20:47:22.206Z,101652.94
2023-05-05T20:49:48.824Z,101657.31
2023-05-05T20:52:17.350Z,101676.88
2023-05-05T20:54:44.116Z,101516.63
2023-05-05T20:57:10.892Z,101578.56
2023-05-05T20:59:38.080Z,101683.78
2023-05-05T21:02:08.334Z,101687.69
2023-05-05T21:04:35.582Z,101678.88
2023-05-05T21:07:03.285Z,101690.34
2023-05-05T21:09:31.795Z,101681.72
2023-05-05T21:11:58.500Z,101672.75
2023-05-05T21:14:25.310Z,101651.00
2023-05-05T21:16:52.090Z,101681.09
2023-05-05T21:19:19.121Z,101685.06
2023-05-05T21:21:46.072Z,101657.16
2023-05-05T21:24:15.465Z,101683.34
2023-05-05T21:26:45.425Z,101695.28
2023-05-05T21:29:12.225Z,101578.25
2023-05-05T21:31:49.450Z,101568.47
2023-05-05T21:34:17.808Z,101676.09
2023-05-05T21:36:44.566Z,101679.94
2023-05-05T21:39:12.166Z,101688.56
2023-05-05T21:41:40.701Z,101632.22
2023-05-05T21:44:07.353Z,101682.34
2023-05-05T21:46:34.078Z,101680.88
2023-05-05T21:49:00.907Z,101683.13
2023-05-05T21:51:27.581Z,101611.06
2023-05-05T21:53:54.205Z,101683.53
2023-05-05T21:56:20.774Z,101617.94
2023-05-05T21:58:47.440Z,101278.94
2023-05-05T22:01:14.084Z,101688.81
2023-05-05T22:03:43.539Z,101691.81
2023-05-05T22:06:28.728Z,101681.56
2023-05-05T22:09:13.895Z,101635.88
2023-05-05T22:11:40.717Z,101608.69
2023-05-05T22:14:07.346Z,101625.91
2023-05-05T22:16:37.548Z,101685.69
2023-05-05T22:19:04.443Z,101706.84
2023-05-05T22:21:31.556Z,101685.66
2023-05-05T22:23:58.350Z,101666.44
2023-05-05T22:26:25.090Z,101703.41
2023-05-05T22:28:51.755Z,101650.03
2023-05-05T22:31:18.582Z,101588.59
2023-05-05T22:33:45.302Z,101709.94
2023-05-05T22:36:13.098Z,101702.94
2023-05-05T22:38:39.835Z,101697.16
2023-05-05T22:41:07.273Z,101675.88
2023-05-05T22:43:34.013Z,101697.72
2023-05-05T22:46:01.118Z,101685.91
2023-05-05T22:48:27.833Z,101695.31
2023-05-05T22:50:54.560Z,101699.81
2023-05-05T22:53:21.270Z,101689.22
2023-05-05T22:55:48.044Z,101690.88
2023-05-05T22:58:14.661Z,101687.28
2023-05-05T23:00:41.351Z,101690.06
2023-05-05T23:03:08.544Z,101688.34
2023-05-05T23:05:35.648Z,101410.22
2023-05-05T23:08:02.394Z,101687.41
2023-05-05T23:10:29.271Z,101685.53
2023-05-05T23:12:56.039Z,101690.28
2023-05-05T23:15:22.843Z,101692.34
2023-05-05T23:17:49.833Z,101676.81
2023-05-05T23:20:16.571Z,101689.69
2023-05-05T23:22:43.267Z,101679.72
2023-05-05T23:25:10.602Z,101696.03
2023-05-05T23:27:38.948Z,101680.97
2023-05-05T23:30:07.415Z,101679.16
2023-05-05T23:32:34.380Z,101687.75
2023-05-05T23:35:01.350Z,101684.91
2023-05-05T23:37:28.141Z,101701.84
2023-05-05T23:39:54.850Z,101687.31
2023-05-05T23:42:21.468Z,101681.13
2023-05-05T23:44:48.132Z,101564.72
2023-05-05T23:47:14.840Z,101684.47
2023-05-05T23:49:41.509Z,101684.97
2023-05-05T23:52:08.706Z,101683.91
2023-05-05T23:54:35.458Z,101682.75
2023-05-05T23:57:02.316Z,101684.34
2023-05-05T23:59:28.951Z,101684.28
